createdAt,value
2019-05-12T00:00:07.839Z,43.95
2019-05-12T00:02:40.120Z,45.35
2019-05-12T00:05:11.554Z,43.40
2019-05-12T00:07:41.794Z,42.48
2019-05-12T00:10:12.775Z,44.42
2019-05-12T00:12:43.592Z,46.55
2019-05-12T00:15:15.649Z,46.35
2019-05-12T00:17:48.020Z,46.30
2019-05-12T00:20:18.489Z,49.48
2019-05-12T00:22:50.850Z,49.60
2019-05-12T00:25:21.865Z,49.83
2019-05-12T00:27:52.591Z,47.10
2019-05-12T00:30:33.485Z,48.20
2019-05-12T00:33:04.824Z,50.08
2019-05-12T00:35:35.022Z,45.65
2019-05-12T00:38:05.268Z,47.05
2019-05-12T00:40:35.548Z,48.85
2019-05-12T00:43:08.468Z,46.00
2019-05-12T00:45:39.857Z,46.95
2019-05-12T00:48:11.143Z,46.08
2019-05-12T00:50:41.361Z,45.78
2019-05-12T00:53:11.682Z,43.55
2019-05-12T00:55:41.926Z,43.40
2019-05-12T00:58:12.137Z,41.23
2019-05-12T01:00:42.377Z,41.42
2019-05-12T01:03:12.618Z,41.25
2019-05-12T01:05:42.898Z,41.15
2019-05-12T01:08:13.525Z,40.43
2019-05-12T01:10:43.851Z,41.13
2019-05-12T01:13:14.096Z,39.03
2019-05-12T01:15:44.338Z,38.63
2019-05-12T01:18:14.630Z,39.35
2019-05-12T01:20:44.927Z,37.08
2019-05-12T01:23:15.515Z,37.00
2019-05-12T01:25:47.783Z,35.35
2019-05-12T01:28:18.507Z,35.48
2019-05-12T01:30:49.391Z,33.10
2019-05-12T01:33:19.792Z,33.98
2019-05-12T01:35:50.013Z,32.95
2019-05-12T01:38:20.250Z,32.95
2019-05-12T01:40:50.481Z,32.60
2019-05-12T01:43:21.221Z,32.58
2019-05-12T01:45:51.763Z,32.15
2019-05-12T01:48:22.369Z,31.40
2019-05-12T01:50:53.016Z,30.30
2019-05-12T01:53:23.684Z,30.50
2019-05-12T01:55:54.516Z,30.12
2019-05-12T01:58:25.156Z,31.57
2019-05-12T02:00:55.463Z,30.70
2019-05-12T02:03:25.675Z,29.85
2019-05-12T02:05:59.959Z,31.50
2019-05-12T02:08:38.385Z,32.70
2019-05-12T02:11:28.745Z,32.00
2019-05-12T02:13:58.942Z,30.95
2019-05-12T02:16:29.244Z,30.75
2019-05-12T02:18:59.819Z,31.27
2019-05-12T02:21:31.448Z,29.48
2019-05-12T02:24:01.857Z,29.37
2019-05-12T02:26:32.430Z,28.10
2019-05-12T02:29:03.150Z,28.70
2019-05-12T02:31:35.098Z,28.35
2019-05-12T02:34:05.991Z,29.32
2019-05-12T02:36:36.645Z,28.20
2019-05-12T02:39:08.297Z,29.05
2019-05-12T02:41:39.499Z,27.73
2019-05-12T02:44:10.147Z,27.15
2019-05-12T02:46:44.538Z,27.62
2019-05-12T02:49:15.518Z,27.73
2019-05-12T02:51:46.630Z,26.87
2019-05-12T02:54:18.636Z,26.48
2019-05-12T02:56:50.578Z,26.85
2019-05-12T02:59:25.329Z,26.90
2019-05-12T03:02:00.862Z,27.42
2019-05-12T03:04:34.962Z,26.97
2019-05-12T03:07:06.522Z,26.65
2019-05-12T03:09:36.580Z,28.20
2019-05-12T03:12:07.538Z,26.75
2019-05-12T03:14:40.917Z,27.62
2019-05-12T03:17:10.213Z,27.48
2019-05-12T03:19:40.512Z,28.10
2019-05-12T03:22:13.927Z,27.30
2019-05-12T03:24:44.924Z,27.22
2019-05-12T03:27:17.686Z,27.65
2019-05-12T03:29:47.866Z,28.23
2019-05-12T03:32:18.314Z,28.45
2019-05-12T03:34:48.594Z,27.48
2019-05-12T03:37:19.200Z,28.02
2019-05-12T03:39:49.764Z,27.50
2019-05-12T03:42:24.818Z,28.40
2019-05-12T03:44:54.712Z,27.30
2019-05-12T03:47:26.582Z,28.27
2019-05-12T03:49:56.883Z,29.02
2019-05-12T03:52:27.137Z,28.98
2019-05-12T03:54:57.356Z,29.63
2019-05-12T03:57:27.596Z,28.52
2019-05-12T03:59:57.821Z,29.48
2019-05-12T04:02:28.143Z,27.93
2019-05-12T04:04:58.797Z,29.37
2019-05-12T04:07:29.112Z,27.87
2019-05-12T04:09:59.335Z,28.02
2019-05-12T04:12:29.942Z,29.57
2019-05-12T04:15:00.375Z,28.20
2019-05-12T04:17:30.626Z,29.55
2019-05-12T04:20:00.855Z,29.98
2019-05-12T04:22:31.112Z,27.87
2019-05-12T04:25:01.342Z,28.52
2019-05-12T04:27:34.775Z,27.98
2019-05-12T04:30:08.407Z,26.75
2019-05-12T04:32:38.689Z,27.65
2019-05-12T04:35:10.929Z,26.45
2019-05-12T04:37:44.669Z,28.40
2019-05-12T04:40:15.082Z,34.53
2019-05-12T04:42:45.830Z,39.15
2019-05-12T04:45:16.533Z,42.45
2019-05-12T04:47:46.830Z,41.48
2019-05-12T04:50:17.438Z,36.40
2019-05-12T04:52:47.721Z,31.85
2019-05-12T04:55:17.968Z,28.20
2019-05-12T04:57:48.184Z,25.75
2019-05-12T05:00:19.010Z,26.50
2019-05-12T05:02:49.599Z,25.17
2019-05-12T05:05:20.249Z,24.95
2019-05-12T05:07:54.161Z,23.45
2019-05-12T05:10:25.104Z,26.07
2019-05-12T05:12:55.903Z,24.05
2019-05-12T05:15:26.196Z,23.25
2019-05-12T05:17:56.847Z,23.70
2019-05-12T05:20:27.139Z,22.77
2019-05-12T05:22:57.384Z,22.45
2019-05-12T05:25:27.968Z,22.30
2019-05-12T05:27:58.611Z,21.93
2019-05-12T05:30:31.017Z,20.50
2019-05-12T05:33:04.075Z,20.52
2019-05-12T05:35:39.541Z,20.12
2019-05-12T05:38:10.763Z,20.30
2019-05-12T05:40:39.988Z,19.50
2019-05-12T05:43:12.952Z,20.17
2019-05-12T05:45:44.699Z,18.80
2019-05-12T05:48:15.244Z,18.92
2019-05-12T05:50:45.895Z,18.30
2019-05-12T05:53:19.505Z,18.15
2019-05-12T05:55:50.301Z,18.67
2019-05-12T05:58:21.365Z,18.17
2019-05-12T06:00:54.804Z,18.32
2019-05-12T06:03:27.789Z,17.07
2019-05-12T06:06:01.508Z,16.20
2019-05-12T06:08:29.105Z,16.32
2019-05-12T06:10:59.759Z,16.23
2019-05-12T06:13:31.814Z,16.70
2019-05-12T06:16:04.999Z,15.90
2019-05-12T06:18:36.452Z,16.52
2019-05-12T06:21:09.088Z,16.73
2019-05-12T06:23:40.250Z,15.50
2019-05-12T06:26:13.810Z,15.95
2019-05-12T06:28:44.028Z,15.05
2019-05-12T06:31:19.018Z,14.90
2019-05-12T06:33:48.983Z,15.40
2019-05-12T06:36:24.378Z,14.03
2019-05-12T06:38:59.395Z,14.73
2019-05-12T06:41:34.987Z,13.58
2019-05-12T06:44:08.768Z,13.72
2019-05-12T06:46:44.217Z,13.00
2019-05-12T06:51:53.466Z,13.50
2019-05-12T06:54:24.784Z,12.95
2019-05-12T06:57:18.582Z,12.98
2019-05-12T06:59:33.852Z,12.73
2019-05-12T07:02:09.600Z,12.30
2019-05-12T07:04:49.743Z,12.43
2019-05-12T07:07:15.176Z,11.78
2019-05-12T07:09:53.807Z,11.12
2019-05-12T07:12:24.806Z,11.45
2019-05-12T07:14:55.601Z,11.50
2019-05-12T07:17:25.639Z,11.53
2019-05-12T07:19:58.270Z,10.93
2019-05-12T07:22:31.824Z,9.93
2019-05-12T07:25:04.554Z,10.15
2019-05-12T07:27:39.570Z,10.25
2019-05-12T07:30:09.124Z,10.03
2019-05-12T07:32:51.275Z,9.93
2019-05-12T07:35:19.272Z,9.70
2019-05-12T07:37:53.446Z,10.03
2019-05-12T07:40:37.263Z,9.48
2019-05-12T07:43:18.584Z,9.38
2019-05-12T07:45:45.193Z,8.60
2019-05-12T07:48:23.711Z,9.40
2019-05-12T07:51:35.625Z,8.85
2019-05-12T07:53:57.252Z,8.25
2019-05-12T07:56:26.026Z,8.53
2019-05-12T07:58:57.167Z,8.43
2019-05-12T08:01:28.330Z,8.25
2019-05-12T08:04:01.582Z,7.42
2019-05-12T08:06:41.403Z,7.60
2019-05-12T08:09:08.950Z,7.58
2019-05-12T08:11:40.243Z,7.08
2019-05-12T08:14:13.776Z,7.42
2019-05-12T08:16:44.639Z,7.45
2019-05-12T08:19:23.756Z,7.40
2019-05-12T08:21:53.602Z,7.05
2019-05-12T08:24:28.602Z,7.03
2019-05-12T08:27:05.784Z,7.35
2019-05-12T08:29:34.309Z,7.00
2019-05-12T08:32:09.907Z,6.87
2019-05-12T08:34:43.719Z,6.35
2019-05-12T08:37:15.530Z,7.30
2019-05-12T08:39:45.879Z,7.47
2019-05-12T08:42:16.392Z,6.90
2019-05-12T08:44:47.049Z,6.75
2019-05-12T08:47:20.538Z,7.40
2019-05-12T08:49:55.994Z,6.50
2019-05-12T08:52:44.182Z,6.60
2019-05-12T08:55:25.077Z,5.92
2019-05-12T08:58:00.493Z,5.87
2019-05-12T09:00:59.823Z,6.00
2019-05-12T09:03:38.146Z,6.42
2019-05-12T09:06:19.489Z,6.15
2019-05-12T09:08:49.582Z,6.15
2019-05-12T09:11:20.427Z,5.10
2019-05-12T09:13:52.800Z,5.60
2019-05-12T09:18:57.402Z,5.22
2019-05-12T09:21:31.783Z,5.05
2019-05-12T09:24:03.955Z,5.28
2019-05-12T09:26:34.613Z,5.25
2019-05-12T09:29:07.489Z,5.58
2019-05-12T09:31:38.143Z,5.10
2019-05-12T09:34:13.376Z,4.58
2019-05-12T09:36:44.247Z,4.53
2019-05-12T09:39:17.059Z,4.85
2019-05-12T09:41:52.127Z,3.92
2019-05-12T09:44:30.259Z,3.95
2019-05-12T09:46:58.360Z,3.77
2019-05-12T09:49:33.323Z,6.87
2019-05-12T09:52:04.384Z,4.10
2019-05-12T09:54:40.933Z,4.08
2019-05-12T09:57:08.617Z,3.90
2019-05-12T09:59:39.289Z,3.83
2019-05-12T10:02:17.903Z,3.55
2019-05-12T10:04:44.234Z,4.17
2019-05-12T10:07:14.866Z,3.65
2019-05-12T10:09:49.159Z,3.60
2019-05-12T10:12:19.709Z,3.60
2019-05-12T10:14:53.539Z,4.10
2019-05-12T10:19:58.164Z,3.30
2019-05-12T10:22:35.746Z,3.77
2019-05-12T10:25:07.546Z,3.98
2019-05-12T10:27:39.848Z,4.00
2019-05-12T10:30:17.398Z,3.55
2019-05-12T10:32:46.745Z,3.37
2019-05-12T10:35:21.630Z,3.42
2019-05-12T10:37:49.158Z,3.37
2019-05-12T10:40:23.310Z,3.80
2019-05-12T10:45:25.463Z,3.35
2019-05-12T10:47:55.698Z,3.70
2019-05-12T10:50:26.190Z,3.33
2019-05-12T10:52:56.848Z,3.37
2019-05-12T10:55:27.587Z,3.90
2019-05-12T10:58:01.354Z,3.72
2019-05-12T11:00:30.682Z,3.50
2019-05-12T11:03:01.514Z,3.65
2019-05-12T11:05:33.959Z,3.20
2019-05-12T11:08:10.856Z,3.37
2019-05-12T11:10:40.057Z,2.85
2019-05-12T11:13:10.734Z,3.23
2019-05-12T11:15:46.191Z,3.30
2019-05-12T11:18:14.355Z,3.22
2019-05-12T11:20:45.165Z,3.30
2019-05-12T11:23:15.649Z,3.40
2019-05-12T11:25:45.879Z,3.35
2019-05-12T11:28:16.200Z,3.30
2019-05-12T11:30:46.401Z,3.02
2019-05-12T11:33:16.681Z,3.58
2019-05-12T11:35:47.423Z,3.40
2019-05-12T11:38:18.041Z,3.45
2019-05-12T11:40:48.372Z,3.45
2019-05-12T11:43:18.963Z,3.95
2019-05-12T11:45:49.628Z,3.67
2019-05-12T11:48:20.029Z,3.50
2019-05-12T11:50:51.370Z,3.20
2019-05-12T11:53:30.531Z,3.27
2019-05-12T11:55:54.451Z,3.55
2019-05-12T11:58:25.119Z,3.15
2019-05-12T12:00:58.582Z,3.00
2019-05-12T12:03:29.767Z,3.02
2019-05-12T12:06:00.407Z,3.02
2019-05-12T12:08:33.669Z,3.70
2019-05-12T12:11:05.249Z,3.20
2019-05-12T12:13:35.932Z,3.25
2019-05-12T12:16:11.197Z,3.05
2019-05-12T12:18:39.513Z,3.42
2019-05-12T12:21:10.223Z,3.40
2019-05-12T12:23:46.038Z,3.20
2019-05-12T12:26:28.928Z,3.55
2019-05-12T12:28:57.491Z,3.30
2019-05-12T12:31:34.689Z,3.12
2019-05-12T12:34:02.133Z,3.00
2019-05-12T12:36:34.211Z,3.15
2019-05-12T12:39:06.951Z,2.85
2019-05-12T12:41:37.742Z,3.30
2019-05-12T12:44:08.072Z,3.65
2019-05-12T12:46:38.446Z,3.40
2019-05-12T12:49:10.329Z,4.12
2019-05-12T12:51:40.946Z,3.20
2019-05-12T12:54:11.176Z,3.50
2019-05-12T12:56:42.021Z,3.83
2019-05-12T12:59:14.573Z,3.62
2019-05-12T13:01:44.403Z,3.75
2019-05-12T13:04:14.747Z,3.30
2019-05-12T13:06:45.024Z,3.15
2019-05-12T13:09:24.141Z,3.40
2019-05-12T13:11:48.981Z,3.27
2019-05-12T13:14:19.245Z,3.20
2019-05-12T13:16:54.575Z,3.22
2019-05-12T13:19:23.692Z,3.08
2019-05-12T13:21:54.219Z,3.15
2019-05-12T13:24:24.759Z,3.12
2019-05-12T13:26:55.290Z,3.52
2019-05-12T13:29:34.255Z,3.10
2019-05-12T13:31:58.306Z,3.12
2019-05-12T13:34:36.565Z,3.20
2019-05-12T13:37:03.339Z,3.10
2019-05-12T13:39:33.647Z,3.30
2019-05-12T13:42:04.364Z,3.40
2019-05-12T13:44:40.580Z,3.22
2019-05-12T13:47:08.214Z,3.45
2019-05-12T13:49:41.655Z,3.17
2019-05-12T13:52:10.738Z,3.33
2019-05-12T13:54:43.546Z,3.30
2019-05-12T13:57:13.790Z,3.30
2019-05-12T13:59:44.098Z,3.10
2019-05-12T14:02:22.261Z,3.27
2019-05-12T14:04:46.396Z,3.62
2019-05-12T14:07:20.131Z,3.37
2019-05-12T14:09:48.971Z,3.08
2019-05-12T14:12:19.254Z,3.30
2019-05-12T14:14:49.993Z,3.37
2019-05-12T14:17:20.646Z,3.42
2019-05-12T14:19:53.302Z,3.47
2019-05-12T14:22:26.373Z,3.47
2019-05-12T14:24:56.016Z,3.62
2019-05-12T14:27:28.733Z,3.40
2019-05-12T14:30:00.216Z,3.42
2019-05-12T14:32:30.893Z,3.17
2019-05-12T14:35:01.515Z,3.60
2019-05-12T14:37:33.596Z,3.50
2019-05-12T14:40:05.383Z,3.20
2019-05-12T14:42:39.809Z,3.55
2019-05-12T14:45:08.433Z,3.67
2019-05-12T14:47:39.160Z,3.87
2019-05-12T14:50:11.014Z,3.92
2019-05-12T14:52:43.755Z,3.60
2019-05-12T14:55:14.174Z,3.62
2019-05-12T14:57:44.747Z,3.85
2019-05-12T15:00:21.075Z,4.00
2019-05-12T15:02:49.054Z,3.42
2019-05-12T15:05:19.414Z,3.92
2019-05-12T15:07:51.444Z,3.60
2019-05-12T15:10:23.473Z,3.72
2019-05-12T15:12:54.419Z,5.22
2019-05-12T15:15:25.440Z,10.32
2019-05-12T15:18:03.597Z,5.60
2019-05-12T15:20:28.458Z,5.40
2019-05-12T15:22:59.205Z,5.62
2019-05-12T15:25:35.524Z,9.75
2019-05-12T15:28:03.922Z,9.83
2019-05-12T15:30:34.919Z,6.67
2019-05-12T15:33:05.620Z,8.30
2019-05-12T15:35:35.955Z,11.10
2019-05-12T15:38:09.423Z,8.40
2019-05-12T15:40:38.493Z,10.30
2019-05-12T15:43:09.411Z,7.92
2019-05-12T15:45:39.817Z,7.58
2019-05-12T15:48:11.765Z,7.08
2019-05-12T15:50:45.443Z,7.95
2019-05-12T15:53:22.155Z,7.97
2019-05-12T15:55:49.915Z,10.13
2019-05-12T15:58:20.350Z,14.53
2019-05-12T16:00:51.125Z,12.60
2019-05-12T16:03:23.563Z,10.23
2019-05-12T16:05:54.152Z,10.28
2019-05-12T16:08:24.602Z,11.60
2019-05-12T16:10:56.191Z,13.20
2019-05-12T16:13:27.370Z,14.15
2019-05-12T16:16:03.470Z,19.07
2019-05-12T16:18:30.392Z,22.40
2019-05-12T16:21:07.225Z,21.25
2019-05-12T16:23:34.176Z,20.88
2019-05-12T16:26:10.812Z,20.92
2019-05-12T16:28:38.992Z,19.55
2019-05-12T16:31:09.644Z,16.27
2019-05-12T16:33:40.310Z,16.27
2019-05-12T16:36:14.431Z,13.55
2019-05-12T16:38:44.563Z,12.30
2019-05-12T16:41:19.851Z,11.60
2019-05-12T16:43:47.686Z,11.53
2019-05-12T16:46:18.118Z,11.25
2019-05-12T16:48:53.622Z,11.38
2019-05-12T16:51:20.738Z,10.70
2019-05-12T16:53:51.353Z,11.33
2019-05-12T16:56:26.395Z,11.95
2019-05-12T16:58:54.287Z,10.58
2019-05-12T17:01:29.198Z,10.05
2019-05-12T17:03:58.982Z,10.68
2019-05-12T17:06:36.792Z,10.48
2019-05-12T17:09:03.359Z,10.50
2019-05-12T17:11:37.343Z,11.18
2019-05-12T17:14:07.359Z,10.72
2019-05-12T17:16:41.848Z,10.20
2019-05-12T17:19:10.854Z,10.55
2019-05-12T17:21:41.459Z,10.88
2019-05-12T17:24:14.445Z,11.03
2019-05-12T17:26:44.047Z,11.33
2019-05-12T17:29:14.607Z,10.63
2019-05-12T17:31:45.194Z,10.50
2019-05-12T17:34:15.503Z,9.58
2019-05-12T17:36:50.061Z,10.03
2019-05-12T17:39:17.698Z,11.38
2019-05-12T17:41:48.192Z,11.05
2019-05-12T17:44:18.926Z,11.45
2019-05-12T17:46:49.309Z,11.95
2019-05-12T17:49:25.296Z,11.25
2019-05-12T17:51:53.532Z,11.80
2019-05-12T17:54:26.491Z,11.05
2019-05-12T17:56:57.207Z,11.63
2019-05-12T17:59:29.507Z,12.40
2019-05-12T18:02:05.854Z,11.70
2019-05-12T18:04:36.784Z,13.53
2019-05-12T18:07:13.021Z,11.20
2019-05-12T18:09:37.881Z,11.93
2019-05-12T18:12:08.195Z,12.15
2019-05-12T18:14:50.030Z,11.03
2019-05-12T18:17:10.816Z,11.88
2019-05-12T18:19:41.450Z,12.47
2019-05-12T18:22:14.027Z,12.43
2019-05-12T18:24:49.311Z,12.40
2019-05-12T18:27:16.445Z,12.88
2019-05-12T18:29:46.756Z,11.18
2019-05-12T18:32:17.366Z,12.00
2019-05-12T18:34:47.644Z,11.22
2019-05-12T18:37:18.034Z,10.80
2019-05-12T18:39:48.227Z,11.00
2019-05-12T18:42:18.481Z,11.20
2019-05-12T18:44:48.698Z,11.83
2019-05-12T18:47:23.330Z,11.35
2019-05-12T18:49:50.952Z,11.28
2019-05-12T18:52:23.454Z,11.45
2019-05-12T18:54:57.237Z,11.78
2019-05-12T18:57:26.050Z,10.68
2019-05-12T19:00:03.447Z,11.08
2019-05-12T19:02:28.730Z,10.30
2019-05-12T19:04:59.666Z,11.48
2019-05-12T19:07:39.840Z,10.50
2019-05-12T19:10:03.783Z,11.80
2019-05-12T19:12:35.671Z,11.03
2019-05-12T19:15:10.174Z,11.50
2019-05-12T19:17:40.263Z,15.25
2019-05-12T19:20:13.419Z,15.13
2019-05-12T19:22:54.027Z,13.30
2019-05-12T19:25:19.175Z,14.00
2019-05-12T19:27:55.158Z,14.50
2019-05-12T19:30:25.138Z,13.38
2019-05-12T19:32:54.911Z,12.60
2019-05-12T19:35:26.082Z,11.75
2019-05-12T19:37:56.414Z,10.93
2019-05-12T19:40:27.040Z,10.40
2019-05-12T19:43:03.344Z,10.20
2019-05-12T19:45:29.684Z,11.22
2019-05-12T19:48:00.346Z,9.13
2019-05-12T19:50:30.724Z,8.70
2019-05-12T19:53:00.927Z,9.10
2019-05-12T19:55:33.635Z,9.15
2019-05-12T19:58:10.976Z,6.37
2019-05-12T20:00:35.574Z,6.10
2019-05-12T20:03:08.572Z,5.85
2019-05-12T20:05:37.904Z,5.90
2019-05-12T20:08:08.366Z,5.97
2019-05-12T20:10:44.620Z,5.50
2019-05-12T20:13:13.431Z,6.28
2019-05-12T20:15:43.845Z,6.00
2019-05-12T20:18:14.842Z,5.22
2019-05-12T20:20:45.756Z,5.35
2019-05-12T20:23:17.589Z,5.65
2019-05-12T20:25:47.986Z,5.10
2019-05-12T20:28:18.228Z,4.95
2019-05-12T20:30:54.398Z,4.85
2019-05-12T20:33:20.930Z,4.85
2019-05-12T20:35:51.664Z,5.17
2019-05-12T20:38:25.457Z,4.58
2019-05-12T20:40:54.368Z,4.92
2019-05-12T20:43:32.204Z,5.00
2019-05-12T20:45:57.020Z,4.15
2019-05-12T20:48:31.138Z,4.95
2019-05-12T20:50:59.339Z,4.58
2019-05-12T20:53:31.867Z,5.05
2019-05-12T20:56:03.700Z,3.90
2019-05-12T20:58:43.032Z,4.12
2019-05-12T21:01:06.899Z,4.83
2019-05-12T21:03:39.745Z,4.35
2019-05-12T21:06:10.007Z,4.15
2019-05-12T21:08:46.622Z,4.92
2019-05-12T21:11:13.507Z,4.22
2019-05-12T21:13:44.355Z,4.47
2019-05-12T21:16:19.468Z,4.40
2019-05-12T21:18:55.752Z,4.42
2019-05-12T21:21:24.490Z,4.30
2019-05-12T21:23:54.038Z,4.40
2019-05-12T21:26:28.404Z,4.58
2019-05-12T21:28:55.368Z,4.58
2019-05-12T21:31:29.418Z,4.40
2019-05-12T21:33:57.533Z,3.52
2019-05-12T21:36:29.540Z,4.22
2019-05-12T21:39:08.398Z,4.12
2019-05-12T21:41:34.466Z,4.30
2019-05-12T21:44:10.970Z,4.58
2019-05-12T21:46:38.440Z,4.00
2019-05-12T21:49:11.858Z,3.70
2019-05-12T21:51:40.682Z,4.47
2019-05-12T21:54:10.919Z,3.85
2019-05-12T21:56:44.850Z,4.10
2019-05-12T21:59:15.516Z,4.15
2019-05-12T22:01:46.046Z,4.33
2019-05-12T22:04:16.602Z,4.30
2019-05-12T22:06:51.185Z,3.70
2019-05-12T22:09:19.199Z,3.87
2019-05-12T22:11:53.711Z,3.75
2019-05-12T22:14:24.041Z,4.53
2019-05-12T22:16:55.771Z,3.98
2019-05-12T22:19:30.684Z,3.65
2019-05-12T22:22:00.979Z,3.92
2019-05-12T22:24:36.612Z,3.70
2019-05-12T22:27:04.953Z,4.17
2019-05-12T22:29:34.563Z,4.53
2019-05-12T22:32:05.349Z,4.03
2019-05-12T22:34:41.804Z,3.87
2019-05-12T22:37:08.491Z,3.85
2019-05-12T22:39:39.142Z,4.35
2019-05-12T22:42:11.576Z,4.12
2019-05-12T22:44:43.790Z,4.05
2019-05-12T22:47:17.529Z,3.90
2019-05-12T22:49:52.111Z,3.77
2019-05-12T22:52:19.097Z,3.72
2019-05-12T22:54:51.099Z,3.58
2019-05-12T22:57:23.966Z,3.47
2019-05-12T22:59:54.252Z,3.92
2019-05-12T23:02:28.878Z,3.80
2019-05-12T23:04:56.700Z,3.77
2019-05-12T23:07:29.707Z,3.95
2019-05-12T23:10:00.605Z,3.47
2019-05-12T23:12:31.215Z,3.80
2019-05-12T23:15:06.331Z,3.55
2019-05-12T23:17:33.960Z,3.05
2019-05-12T23:20:07.596Z,3.47
2019-05-12T23:22:38.272Z,3.67
2019-05-12T23:25:11.502Z,3.17
2019-05-12T23:27:40.982Z,3.20
2019-05-12T23:30:15.763Z,3.17
2019-05-12T23:32:51.534Z,3.33
2019-05-12T23:35:18.701Z,3.35
2019-05-12T23:37:49.281Z,2.90
2019-05-12T23:40:19.931Z,3.33
2019-05-12T23:42:50.683Z,3.17
2019-05-12T23:45:20.926Z,3.40
2019-05-12T23:47:53.864Z,3.35
2019-05-12T23:50:24.167Z,3.27
2019-05-12T23:52:54.544Z,2.52
2019-05-12T23:55:24.811Z,3.27
2019-05-12T23:57:55.370Z,3.10
